sensor_id;sensor_type;location;lat;lon;timestamp;pressure;altitude;pressure_sealevel;temperature;humidity
72548;BME280;60570;50.848;6.776;2024-01-15T00:00:56;99315.16;;;5.36;63.85
72548;BME280;60570;50.848;6.776;2024-01-15T00:01:58;99319.88;;;5.36;63.76
72548;BME280;60570;50.848;6.776;2024-01-15T00:02:59;99322.66;;;5.36;63.87
72548;BME280;60570;50.848;6.776;2024-01-15T00:04:00;99315.97;;;5.37;63.65
72548;BME280;60570;50.848;6.776;2024-01-15T00:05:01;99315.50;;;5.35;63.94
72548;BME280;60570;50.848;6.776;2024-01-15T00:06:03;99309.84;;;5.31;63.76
72548;BME280;60570;50.848;6.776;2024-01-15T00:07:04;99313.09;;;5.33;63.96
72548;BME280;60570;50.848;6.776;2024-01-15T00:08:06;99313.09;;;5.33;64.30
72548;BME280;60570;50.848;6.776;2024-01-15T00:09:07;99313.72;;;5.30;63.79
72548;BME280;60570;50.848;6.776;2024-01-15T00:10:10;99304.34;;;5.31;63.70
72548;BME280;60570;50.848;6.776;2024-01-15T00:11:11;99305.66;;;5.34;63.72
72548;BME280;60570;50.848;6.776;2024-01-15T00:12:12;99297.69;;;5.32;64.05
72548;BME280;60570;50.848;6.776;2024-01-15T00:13:14;99298.50;;;5.33;63.87
72548;BME280;60570;50.848;6.776;2024-01-15T00:14:16;99296.22;;;5.35;64.02
72548;BME280;60570;50.848;6.776;2024-01-15T00:15:20;99291.06;;;5.33;63.95
72548;BME280;60570;50.848;6.776;2024-01-15T00:16:22;99296.56;;;5.33;64.12
72548;BME280;60570;50.848;6.776;2024-01-15T00:17:23;99290.25;;;5.33;64.00
72548;BME280;60570;50.848;6.776;2024-01-15T00:18:24;99288.19;;;5.30;64.00
72548;BME280;60570;50.848;6.776;2024-01-15T00:19:25;99289.28;;;5.29;64.12
72548;BME280;60570;50.848;6.776;2024-01-15T00:20:27;99289.78;;;5.31;64.25
72548;BME280;60570;50.848;6.776;2024-01-15T00:21:29;99279.56;;;5.31;64.07
72548;BME280;60570;50.848;6.776;2024-01-15T00:22:29;99285.09;;;5.31;63.79
72548;BME280;60570;50.848;6.776;2024-01-15T00:23:32;99282.81;;;5.33;64.21
72548;BME280;60570;50.848;6.776;2024-01-15T00:24:33;99281.66;;;5.34;64.20
72548;BME280;60570;50.848;6.776;2024-01-15T00:25:34;99284.09;;;5.36;64.05
72548;BME280;60570;50.848;6.776;2024-01-15T00:26:35;99280.88;;;5.34;63.83
72548;BME280;60570;50.848;6.776;2024-01-15T00:27:37;99279.25;;;5.33;64.00
72548;BME280;60570;50.848;6.776;2024-01-15T00:28:39;99276.81;;;5.31;63.79
72548;BME280;60570;50.848;6.776;2024-01-15T00:29:40;99276.81;;;5.31;64.44
72548;BME280;60570;50.848;6.776;2024-01-15T00:30:41;99279.25;;;5.33;64.32
72548;BME280;60570;50.848;6.776;2024-01-15T00:31:43;99276.34;;;5.29;63.86
72548;BME280;60570;50.848;6.776;2024-01-15T00:32:43;99276.34;;;5.29;64.16
72548;BME280;60570;50.848;6.776;2024-01-15T00:33:45;99277.16;;;5.30;64.22
72548;BME280;60570;50.848;6.776;2024-01-15T00:34:46;99284.94;;;5.28;64.40
72548;BME280;60570;50.848;6.776;2024-01-15T00:35:48;99276.69;;;5.28;64.22
72548;BME280;60570;50.848;6.776;2024-01-15T00:36:48;99278.28;;;5.29;64.08
72548;BME280;60570;50.848;6.776;2024-01-15T00:37:50;99268.41;;;5.28;64.53
72548;BME280;60570;50.848;6.776;2024-01-15T00:38:51;99275.88;;;5.27;64.38
72548;BME280;60570;50.848;6.776;2024-01-15T00:39:53;99274.75;;;5.28;64.30
72548;BME280;60570;50.848;6.776;2024-01-15T00:40:54;99277.50;;;5.28;64.29
72548;BME280;60570;50.848;6.776;2024-01-15T00:41:56;99273.25;;;5.31;64.10
72548;BME280;60570;50.848;6.776;2024-01-15T00:42:56;99274.06;;;5.31;64.28
72548;BME280;60570;50.848;6.776;2024-01-15T00:43:59;99266.63;;;5.32;64.56
72548;BME280;60570;50.848;6.776;2024-01-15T00:45:00;99266.63;;;5.32;64.24
72548;BME280;60570;50.848;6.776;2024-01-15T00:46:01;99261.91;;;5.32;64.54
72548;BME280;60570;50.848;6.776;2024-01-15T00:47:03;99261.44;;;5.30;64.30
72548;BME280;60570;50.848;6.776;2024-01-15T00:48:04;99267.75;;;5.31;64.38
72548;BME280;60570;50.848;6.776;2024-01-15T00:49:06;99266.63;;;5.32;64.35
72548;BME280;60570;50.848;6.776;2024-01-15T00:50:07;99264.66;;;5.32;64.55
72548;BME280;60570;50.848;6.776;2024-01-15T00:51:09;99268.91;;;5.30;64.58
72548;BME280;60570;50.848;6.776;2024-01-15T00:52:10;99267.41;;;5.32;64.50
72548;BME280;60570;50.848;6.776;2024-01-15T00:53:11;99264.34;;;5.34;64.32
72548;BME280;60570;50.848;6.776;2024-01-15T00:54:12;99269.03;;;5.33;64.38
72548;BME280;60570;50.848;6.776;2024-01-15T00:55:14;99266.63;;;5.32;64.29
72548;BME280;60570;50.848;6.776;2024-01-15T00:56:14;99268.69;;;5.35;64.25
72548;BME280;60570;50.848;6.776;2024-01-15T00:57:16;99262.72;;;5.33;64.29
72548;BME280;60570;50.848;6.776;2024-01-15T00:58:19;99257.22;;;5.33;64.47
72548;BME280;60570;50.848;6.776;2024-01-15T00:59:22;99268.69;;;5.35;64.51
72548;BME280;60570;50.848;6.776;2024-01-15T01:00:23;99258.03;;;5.33;64.43
72548;BME280;60570;50.848;6.776;2024-01-15T01:01:23;99262.38;;;5.34;64.36
72548;BME280;60570;50.848;6.776;2024-01-15T01:02:26;99264.00;;;5.35;64.26
72548;BME280;60570;50.848;6.776;2024-01-15T01:03:26;99262.06;;;5.36;63.92
72548;BME280;60570;50.848;6.776;2024-01-15T01:04:28;99268.06;;;5.38;64.40
72548;BME280;60570;50.848;6.776;2024-01-15T01:05:29;99269.19;;;5.37;64.25
72548;BME280;60570;50.848;6.776;2024-01-15T01:06:30;99270.34;;;5.36;64.05
72548;BME280;60570;50.848;6.776;2024-01-15T01:07:31;99266.63;;;5.32;64.64
72548;BME280;60570;50.848;6.776;2024-01-15T01:08:32;99268.22;;;5.33;64.63
72548;BME280;60570;50.848;6.776;2024-01-15T01:09:33;99268.69;;;5.35;64.46
72548;BME280;60570;50.848;6.776;2024-01-15T01:10:34;99265.47;;;5.33;64.47
72548;BME280;60570;50.848;6.776;2024-01-15T01:11:36;99265.81;;;5.31;64.08
72548;BME280;60570;50.848;6.776;2024-01-15T01:12:36;99272.13;;;5.32;64.25
72548;BME280;60570;50.848;6.776;2024-01-15T01:13:38;99271.31;;;5.31;64.26
72548;BME280;60570;50.848;6.776;2024-01-15T01:14:40;99276.69;;;5.28;64.71
72548;BME280;60570;50.848;6.776;2024-01-15T01:15:42;99266.00;;;5.26;64.25
72548;BME280;60570;50.848;6.776;2024-01-15T01:16:42;99259.34;;;5.27;64.12
72548;BME280;60570;50.848;6.776;2024-01-15T01:17:44;99262.91;;;5.28;64.43
72548;BME280;60570;50.848;6.776;2024-01-15T01:18:44;99269.25;;;5.28;64.25
72548;BME280;60570;50.848;6.776;2024-01-15T01:19:46;99262.91;;;5.28;64.79
72548;BME280;60570;50.848;6.776;2024-01-15T01:20:47;99266.50;;;5.28;64.36
72548;BME280;60570;50.848;6.776;2024-01-15T01:21:49;99263.72;;;5.28;64.28
72548;BME280;60570;50.848;6.776;2024-01-15T01:22:51;99259.50;;;5.31;64.24
72548;BME280;60570;50.848;6.776;2024-01-15T01:23:52;99261.91;;;5.32;64.46
72548;BME280;60570;50.848;6.776;2024-01-15T01:24:53;99259.16;;;5.32;64.37
72548;BME280;60570;50.848;6.776;2024-01-15T01:25:54;99261.91;;;5.32;64.26
72548;BME280;60570;50.848;6.776;2024-01-15T01:26:55;99269.38;;;5.32;64.53
72548;BME280;60570;50.848;6.776;2024-01-15T01:27:56;99260.66;;;5.30;64.41
72548;BME280;60570;50.848;6.776;2024-01-15T01:28:57;99259.00;;;5.29;64.24
72548;BME280;60570;50.848;6.776;2024-01-15T01:29:59;99259.50;;;5.31;64.72
72548;BME280;60570;50.848;6.776;2024-01-15T01:31:01;99258.69;;;5.30;64.41
72548;BME280;60570;50.848;6.776;2024-01-15T01:32:02;99261.75;;;5.29;64.42
72548;BME280;60570;50.848;6.776;2024-01-15T01:33:04;99261.75;;;5.29;64.68
72548;BME280;60570;50.848;6.776;2024-01-15T01:34:04;99266.50;;;5.28;64.61
72548;BME280;60570;50.848;6.776;2024-01-15T01:35:05;99261.75;;;5.29;64.61
72548;BME280;60570;50.848;6.776;2024-01-15T01:36:07;99262.59;;;5.29;64.27
72548;BME280;60570;50.848;6.776;2024-01-15T01:37:09;99259.34;;;5.27;64.43
72548;BME280;60570;50.848;6.776;2024-01-15T01:38:12;99259.34;;;5.27;64.52
72548;BME280;60570;50.848;6.776;2024-01-15T01:39:13;99259.00;;;5.29;64.80
72548;BME280;60570;50.848;6.776;2024-01-15T01:40:15;99254.31;;;5.29;64.79
72548;BME280;60570;50.848;6.776;2024-01-15T01:41:15;99259.34;;;5.27;64.59
72548;BME280;60570;50.848;6.776;2024-01-15T01:42:17;99258.69;;;5.30;64.39
72548;BME280;60570;50.848;6.776;2024-01-15T01:43:18;99254.78;;;5.31;64.34
72548;BME280;60570;50.848;6.776;2024-01-15T01:44:20;99260.31;;;5.31;64.69
72548;BME280;60570;50.848;6.776;2024-01-15T01:45:22;99259.50;;;5.31;64.43
72548;BME280;60570;50.848;6.776;2024-01-15T01:46:24;99263.41;;;5.30;64.66
72548;BME280;60570;50.848;6.776;2024-01-15T01:47:26;99257.56;;;5.31;64.19
72548;BME280;60570;50.848;6.776;2024-01-15T01:48:29;99258.84;;;5.34;64.63
72548;BME280;60570;50.848;6.776;2024-01-15T01:49:30;99253.34;;;5.34;64.25
72548;BME280;60570;50.848;6.776;2024-01-15T01:50:32;99263.41;;;5.30;64.15
72548;BME280;60570;50.848;6.776;2024-01-15T01:51:34;99255.63;;;5.32;64.37
72548;BME280;60570;50.848;6.776;2024-01-15T01:52:36;99260.78;;;5.33;64.25
72548;BME280;60570;50.848;6.776;2024-01-15T01:53:37;99267.09;;;5.34;64.61
72548;BME280;60570;50.848;6.776;2024-01-15T01:54:40;99267.41;;;5.32;64.24
72548;BME280;60570;50.848;6.776;2024-01-15T01:55:42;99263.06;;;5.31;64.72
72548;BME280;60570;50.848;6.776;2024-01-15T01:56:42;99268.22;;;5.33;64.19
72548;BME280;60570;50.848;6.776;2024-01-15T01:57:44;99267.41;;;5.32;64.12
72548;BME280;60570;50.848;6.776;2024-01-15T01:58:46;99262.59;;;5.29;64.85
72548;BME280;60570;50.848;6.776;2024-01-15T01:59:49;99273.72;;;5.33;64.45
72548;BME280;60570;50.848;6.776;2024-01-15T02:00:53;99258.03;;;5.33;64.60
72548;BME280;60570;50.848;6.776;2024-01-15T02:01:55;99255.91;;;5.30;64.32
72548;BME280;60570;50.848;6.776;2024-01-15T02:02:55;99255.63;;;5.32;64.32
72548;BME280;60570;50.848;6.776;2024-01-15T02:03:57;99259.50;;;5.31;64.72
72548;BME280;60570;50.848;6.776;2024-01-15T02:04:58;99259.16;;;5.32;64.68
72548;BME280;60570;50.848;6.776;2024-01-15T02:06:00;99257.88;;;5.30;64.35
72548;BME280;60570;50.848;6.776;2024-01-15T02:07:01;99258.69;;;5.30;64.71
72548;BME280;60570;50.848;6.776;2024-01-15T02:08:03;99263.06;;;5.31;64.19
72548;BME280;60570;50.848;6.776;2024-01-15T02:09:04;99258.38;;;5.32;64.71
72548;BME280;60570;50.848;6.776;2024-01-15T02:10:06;99260.78;;;5.33;64.56
72548;BME280;60570;50.848;6.776;2024-01-15T02:11:07;99260.78;;;5.33;64.29
72548;BME280;60570;50.848;6.776;2024-01-15T02:12:09;99263.88;;;5.32;64.71
72548;BME280;60570;50.848;6.776;2024-01-15T02:13:10;99260.31;;;5.31;64.66
72548;BME280;60570;50.848;6.776;2024-01-15T02:14:11;99265.47;;;5.33;64.48
72548;BME280;60570;50.848;6.776;2024-01-15T02:15:12;99267.09;;;5.34;64.23
72548;BME280;60570;50.848;6.776;2024-01-15T02:16:14;99259.31;;;5.36;64.68
72548;BME280;60570;50.848;6.776;2024-01-15T02:17:16;99264.34;;;5.34;64.28
72548;BME280;60570;50.848;6.776;2024-01-15T02:18:17;99256.41;;;5.32;64.71
72548;BME280;60570;50.848;6.776;2024-01-15T02:19:18;99259.97;;;5.33;64.55
72548;BME280;60570;50.848;6.776;2024-01-15T02:20:19;99257.56;;;5.31;64.27
72548;BME280;60570;50.848;6.776;2024-01-15T02:21:20;99256.41;;;5.32;64.42
72548;BME280;60570;50.848;6.776;2024-01-15T02:22:22;99259.16;;;5.32;64.72
72548;BME280;60570;50.848;6.776;2024-01-15T02:23:24;99254.47;;;5.33;64.41
72548;BME280;60570;50.848;6.776;2024-01-15T02:24:25;99257.22;;;5.33;64.73
72548;BME280;60570;50.848;6.776;2024-01-15T02:25:26;99259.16;;;5.32;64.29
72548;BME280;60570;50.848;6.776;2024-01-15T02:26:27;99258.69;;;5.30;64.89
72548;BME280;60570;50.848;6.776;2024-01-15T02:27:29;99256.25;;;5.29;64.38
72548;BME280;60570;50.848;6.776;2024-01-15T02:28:29;99258.38;;;5.32;64.28
72548;BME280;60570;50.848;6.776;2024-01-15T02:29:31;99262.59;;;5.29;64.40
72548;BME280;60570;50.848;6.776;2024-01-15T02:30:34;99258.69;;;5.30;64.43
72548;BME280;60570;50.848;6.776;2024-01-15T02:31:38;99253.03;;;5.27;64.81
72548;BME280;60570;50.848;6.776;2024-01-15T02:32:39;99258.22;;;5.28;64.79
72548;BME280;60570;50.848;6.776;2024-01-15T02:33:42;99255.13;;;5.30;64.79
72548;BME280;60570;50.848;6.776;2024-01-15T02:34:42;99259.81;;;5.29;64.38
72548;BME280;60570;50.848;6.776;2024-01-15T02:35:44;99260.97;;;5.28;64.45
72548;BME280;60570;50.848;6.776;2024-01-15T02:36:46;99255.31;;;5.25;64.56
72548;BME280;60570;50.848;6.776;2024-01-15T02:37:48;99262.44;;;5.26;64.92
72548;BME280;60570;50.848;6.776;2024-01-15T02:38:50;99260.97;;;5.28;64.95
72548;BME280;60570;50.848;6.776;2024-01-15T02:39:51;99255.78;;;5.27;64.99
72548;BME280;60570;50.848;6.776;2024-01-15T02:40:52;99255.00;;;5.26;64.56
72548;BME280;60570;50.848;6.776;2024-01-15T02:41:54;99257.75;;;5.26;64.94
72548;BME280;60570;50.848;6.776;2024-01-15T02:42:56;99264.38;;;5.25;64.63
72548;BME280;60570;50.848;6.776;2024-01-15T02:43:57;99258.53;;;5.27;64.82
72548;BME280;60570;50.848;6.776;2024-01-15T02:44:58;99255.13;;;5.30;64.80
72548;BME280;60570;50.848;6.776;2024-01-15T02:45:59;99259.81;;;5.29;64.73
72548;BME280;60570;50.848;6.776;2024-01-15T02:47:01;99247.22;;;5.28;64.39
72548;BME280;60570;50.848;6.776;2024-01-15T02:48:01;99247.22;;;5.28;64.94
72548;BME280;60570;50.848;6.776;2024-01-15T02:49:03;99250.63;;;5.25;64.44
72548;BME280;60570;50.848;6.776;2024-01-15T02:50:05;99249.81;;;5.25;64.96
72548;BME280;60570;50.848;6.776;2024-01-15T02:51:06;99253.38;;;5.25;64.91
72548;BME280;60570;50.848;6.776;2024-01-15T02:52:07;99248.19;;;5.24;64.85
72548;BME280;60570;50.848;6.776;2024-01-15T02:53:09;99247.88;;;5.25;64.78
72548;BME280;60570;50.848;6.776;2024-01-15T02:54:11;99247.53;;;5.27;64.44
72548;BME280;60570;50.848;6.776;2024-01-15T02:55:11;99252.72;;;5.28;64.75
72548;BME280;60570;50.848;6.776;2024-01-15T02:56:13;99252.25;;;5.26;64.45
72548;BME280;60570;50.848;6.776;2024-01-15T02:57:14;99247.22;;;5.28;64.79
72548;BME280;60570;50.848;6.776;2024-01-15T02:58:15;99254.66;;;5.28;64.52
72548;BME280;60570;50.848;6.776;2024-01-15T02:59:16;99253.38;;;5.25;64.67
72548;BME280;60570;50.848;6.776;2024-01-15T03:00:18;99252.56;;;5.25;64.61
72548;BME280;60570;50.848;6.776;2024-01-15T03:01:19;99254.66;;;5.28;64.50
72548;BME280;60570;50.848;6.776;2024-01-15T03:02:21;99247.03;;;5.25;64.89
72548;BME280;60570;50.848;6.776;2024-01-15T03:03:21;99251.78;;;5.24;64.91
72548;BME280;60570;50.848;6.776;2024-01-15T03:04:23;99252.25;;;5.26;64.74
72548;BME280;60570;50.848;6.776;2024-01-15T03:05:23;99255.31;;;5.25;64.87
72548;BME280;60570;50.848;6.776;2024-01-15T03:06:25;99258.41;;;5.23;65.05
72548;BME280;60570;50.848;6.776;2024-01-15T03:07:27;99258.06;;;5.25;64.81
72548;BME280;60570;50.848;6.776;2024-01-15T03:08:28;99263.91;;;5.23;64.83
72548;BME280;60570;50.848;6.776;2024-01-15T03:09:31;99262.44;;;5.26;65.04
72548;BME280;60570;50.848;6.776;2024-01-15T03:10:32;99272.63;;;5.25;65.11
72548;BME280;60570;50.848;6.776;2024-01-15T03:11:37;99264.03;;;5.27;64.66
72548;BME280;60570;50.848;6.776;2024-01-15T03:12:37;99267.47;;;5.24;64.49
72548;BME280;60570;50.848;6.776;2024-01-15T03:13:39;99257.28;;;5.24;64.64
72548;BME280;60570;50.848;6.776;2024-01-15T03:14:40;99260.34;;;5.23;64.75
72548;BME280;60570;50.848;6.776;2024-01-15T03:15:42;99256.13;;;5.25;64.80
72548;BME280;60570;50.848;6.776;2024-01-15T03:16:43;99262.44;;;5.26;64.91
72548;BME280;60570;50.848;6.776;2024-01-15T03:17:45;99255.31;;;5.25;64.62
72548;BME280;60570;50.848;6.776;2024-01-15T03:18:46;99257.41;;;5.28;64.52
72548;BME280;60570;50.848;6.776;2024-01-15T03:19:47;99261.63;;;5.25;64.55
72548;BME280;60570;50.848;6.776;2024-01-15T03:20:49;99257.75;;;5.26;64.98
72548;BME280;60570;50.848;6.776;2024-01-15T03:21:51;99248.19;;;5.24;64.92
72548;BME280;60570;50.848;6.776;2024-01-15T03:22:52;99253.72;;;5.24;65.04
72548;BME280;60570;50.848;6.776;2024-01-15T03:23:54;99257.75;;;5.26;64.78
72548;BME280;60570;50.848;6.776;2024-01-15T03:24:56;99254.19;;;5.26;64.54
72548;BME280;60570;50.848;6.776;2024-01-15T03:25:56;99256.47;;;5.24;65.08
72548;BME280;60570;50.848;6.776;2024-01-15T03:26:58;99253.22;;;5.22;64.88
72548;BME280;60570;50.848;6.776;2024-01-15T03:27:59;99252.41;;;5.21;64.87
72548;BME280;60570;50.848;6.776;2024-01-15T03:29:00;99250.47;;;5.22;64.75
72548;BME280;60570;50.848;6.776;2024-01-15T03:30:01;99252.56;;;5.25;64.73
72548;BME280;60570;50.848;6.776;2024-01-15T03:31:03;99248.53;;;5.22;65.17
72548;BME280;60570;50.848;6.776;2024-01-15T03:32:04;99234.59;;;5.19;65.18
72548;BME280;60570;50.848;6.776;2024-01-15T03:33:06;99254.03;;;5.22;65.10
72548;BME280;60570;50.848;6.776;2024-01-15T03:34:06;99250.81;;;5.20;65.17
72548;BME280;60570;50.848;6.776;2024-01-15T03:35:08;99246.44;;;5.19;64.85
72548;BME280;60570;50.848;6.776;2024-01-15T03:36:09;99253.22;;;5.22;64.81
72548;BME280;60570;50.848;6.776;2024-01-15T03:37:11;99248.53;;;5.22;65.18
72548;BME280;60570;50.848;6.776;2024-01-15T03:38:13;99248.19;;;5.24;65.08
72548;BME280;60570;50.848;6.776;2024-01-15T03:39:14;99253.72;;;5.24;65.01
72548;BME280;60570;50.848;6.776;2024-01-15T03:40:16;99255.31;;;5.25;65.04
72548;BME280;60570;50.848;6.776;2024-01-15T03:41:18;99252.25;;;5.26;64.61
72548;BME280;60570;50.848;6.776;2024-01-15T03:42:19;99256.94;;;5.26;64.83
72548;BME280;60570;50.848;6.776;2024-01-15T03:43:20;99249.00;;;5.24;64.48
72548;BME280;60570;50.848;6.776;2024-01-15T03:44:21;99250.94;;;5.24;64.68
72548;BME280;60570;50.848;6.776;2024-01-15T03:45:23;99250.63;;;5.25;64.70
72548;BME280;60570;50.848;6.776;2024-01-15T03:46:23;99249.81;;;5.25;64.70
72548;BME280;60570;50.848;6.776;2024-01-15T03:47:26;99245.78;;;5.22;64.80
72548;BME280;60570;50.848;6.776;2024-01-15T03:48:26;99245.31;;;5.20;65.22
72548;BME280;60570;50.848;6.776;2024-01-15T03:49:27;99246.56;;;5.23;65.15
72548;BME280;60570;50.848;6.776;2024-01-15T03:50:29;99241.06;;;5.23;64.68
72548;BME280;60570;50.848;6.776;2024-01-15T03:51:29;99249.00;;;5.24;65.12
72548;BME280;60570;50.848;6.776;2024-01-15T03:52:31;99244.28;;;5.25;64.94
72548;BME280;60570;50.848;6.776;2024-01-15T03:53:31;99244.78;;;5.27;64.50
72548;BME280;60570;50.848;6.776;2024-01-15T03:54:32;99238.47;;;5.26;64.96
72548;BME280;60570;50.848;6.776;2024-01-15T03:55:35;99237.19;;;5.24;64.53
72548;BME280;60570;50.848;6.776;2024-01-15T03:56:36;99240.28;;;5.22;65.16
72548;BME280;60570;50.848;6.776;2024-01-15T03:57:37;99236.72;;;5.22;65.20
72548;BME280;60570;50.848;6.776;2024-01-15T03:58:38;99231.22;;;5.22;65.09
72548;BME280;60570;50.848;6.776;2024-01-15T03:59:40;99234.78;;;5.22;64.76
72548;BME280;60570;50.848;6.776;2024-01-15T04:00:42;99233.63;;;5.23;64.93
72548;BME280;60570;50.848;6.776;2024-01-15T04:01:48;99227.00;;;5.24;64.88
72548;BME280;60570;50.848;6.776;2024-01-15T04:02:51;99231.69;;;5.24;64.66
72548;BME280;60570;50.848;6.776;2024-01-15T04:03:51;99226.53;;;5.22;65.00
72548;BME280;60570;50.848;6.776;2024-01-15T04:04:53;99231.34;;;5.25;64.68
72548;BME280;60570;50.848;6.776;2024-01-15T04:05:54;99229.41;;;5.26;64.60
72548;BME280;60570;50.848;6.776;2024-01-15T04:06:55;99222.28;;;5.25;64.68
72548;BME280;60570;50.848;6.776;2024-01-15T04:07:56;99227.78;;;5.25;64.76
72548;BME280;60570;50.848;6.776;2024-01-15T04:08:58;99219.03;;;5.23;64.61
72548;BME280;60570;50.848;6.776;2024-01-15T04:09:59;99230.41;;;5.21;64.76
72548;BME280;60570;50.848;6.776;2024-01-15T04:11:01;99223.44;;;5.24;64.70
72548;BME280;60570;50.848;6.776;2024-01-15T04:12:03;99225.84;;;5.25;64.92
72548;BME280;60570;50.848;6.776;2024-01-15T04:13:04;99234.44;;;5.24;64.73
72548;BME280;60570;50.848;6.776;2024-01-15T04:14:05;99234.44;;;5.24;64.85
72548;BME280;60570;50.848;6.776;2024-01-15T04:15:06;99222.28;;;5.25;64.59
72548;BME280;60570;50.848;6.776;2024-01-15T04:16:08;99225.50;;;5.27;64.58
72548;BME280;60570;50.848;6.776;2024-01-15T04:17:09;99226.66;;;5.26;64.74
72548;BME280;60570;50.848;6.776;2024-01-15T04:18:10;99221.97;;;5.26;64.74
72548;BME280;60570;50.848;6.776;2024-01-15T04:19:11;99223.91;;;5.26;64.97
72548;BME280;60570;50.848;6.776;2024-01-15T04:20:13;99224.72;;;5.26;64.95
72548;BME280;60570;50.848;6.776;2024-01-15T04:21:14;99219.22;;;5.26;64.92
72548;BME280;60570;50.848;6.776;2024-01-15T04:22:15;99218.06;;;5.27;64.85
72548;BME280;60570;50.848;6.776;2024-01-15T04:23:16;99221.97;;;5.26;64.67
72548;BME280;60570;50.848;6.776;2024-01-15T04:24:18;99219.53;;;5.25;64.46
72548;BME280;60570;50.848;6.776;2024-01-15T04:25:18;99215.16;;;5.24;64.83
72548;BME280;60570;50.848;6.776;2024-01-15T04:26:21;99223.91;;;5.26;64.55
72548;BME280;60570;50.848;6.776;2024-01-15T04:27:22;99218.41;;;5.26;64.73
72548;BME280;60570;50.848;6.776;2024-01-15T04:28:24;99221.00;;;5.22;64.94
72548;BME280;60570;50.848;6.776;2024-01-15T04:29:24;99223.44;;;5.24;64.96
72548;BME280;60570;50.848;6.776;2024-01-15T04:30:26;99211.59;;;5.23;64.58
72548;BME280;60570;50.848;6.776;2024-01-15T04:31:27;99207.72;;;5.24;64.66
72548;BME280;60570;50.848;6.776;2024-01-15T04:32:28;99209.31;;;5.25;64.80
72548;BME280;60570;50.848;6.776;2024-01-15T04:33:29;99210.13;;;5.26;64.94
72548;BME280;60570;50.848;6.776;2024-01-15T04:34:31;99203.00;;;5.25;64.84
72548;BME280;60570;50.848;6.776;2024-01-15T04:35:32;99204.28;;;5.27;64.54
72548;BME280;60570;50.848;6.776;2024-01-15T04:36:38;99198.78;;;5.27;64.91
72548;BME280;60570;50.848;6.776;2024-01-15T04:37:40;99208.97;;;5.27;64.73
72548;BME280;60570;50.848;6.776;2024-01-15T04:38:41;99206.22;;;5.27;64.94
72548;BME280;60570;50.848;6.776;2024-01-15T04:39:42;99201.41;;;5.24;64.89
72548;BME280;60570;50.848;6.776;2024-01-15T04:40:43;99194.75;;;5.25;64.79
72548;BME280;60570;50.848;6.776;2024-01-15T04:41:46;99205.75;;;5.25;64.94
72548;BME280;60570;50.848;6.776;2024-01-15T04:42:47;99199.13;;;5.26;64.53
72548;BME280;60570;50.848;6.776;2024-01-15T04:43:48;99202.69;;;5.26;64.82
72548;BME280;60570;50.848;6.776;2024-01-15T04:44:49;99197.84;;;5.23;64.54
72548;BME280;60570;50.848;6.776;2024-01-15T04:45:51;99200.78;;;5.18;65.23
72548;BME280;60570;50.848;6.776;2024-01-15T04:46:52;99200.13;;;5.21;65.04
72548;BME280;60570;50.848;6.776;2024-01-15T04:47:54;99196.06;;;5.19;65.35
72548;BME280;60570;50.848;6.776;2024-01-15T04:48:56;99192.66;;;5.22;64.78
72548;BME280;60570;50.848;6.776;2024-01-15T04:49:56;99195.09;;;5.23;65.11
72548;BME280;60570;50.848;6.776;2024-01-15T04:50:58;99196.38;;;5.26;64.56
72548;BME280;60570;50.848;6.776;2024-01-15T04:51:59;99192.81;;;5.25;64.57
72548;BME280;60570;50.848;6.776;2024-01-15T04:53:00;99188.47;;;5.24;65.00
72548;BME280;60570;50.848;6.776;2024-01-15T04:54:01;99192.00;;;5.25;65.09
72548;BME280;60570;50.848;6.776;2024-01-15T04:55:03;99198.19;;;5.22;65.21
72548;BME280;60570;50.848;6.776;2024-01-15T04:56:04;99188.47;;;5.24;64.85
72548;BME280;60570;50.848;6.776;2024-01-15T04:57:07;99189.25;;;5.25;64.74
72548;BME280;60570;50.848;6.776;2024-01-15T04:58:08;99193.16;;;5.24;64.89
72548;BME280;60570;50.848;6.776;2024-01-15T04:59:09;99201.75;;;5.22;64.78
72548;BME280;60570;50.848;6.776;2024-01-15T05:00:11;99196.25;;;5.22;65.24
72548;BME280;60570;50.848;6.776;2024-01-15T05:01:15;99188.75;;;5.23;65.06
72548;BME280;60570;50.848;6.776;2024-01-15T05:02:17;99195.09;;;5.23;64.84
72548;BME280;60570;50.848;6.776;2024-01-15T05:03:17;99192.34;;;5.23;64.77
72548;BME280;60570;50.848;6.776;2024-01-15T05:04:19;99199.00;;;5.22;65.21
72548;BME280;60570;50.848;6.776;2024-01-15T05:05:20;99189.78;;;5.18;64.99
72548;BME280;60570;50.848;6.776;2024-01-15T05:06:21;99194.13;;;5.19;65.38
72548;BME280;60570;50.848;6.776;2024-01-15T05:07:22;99189.78;;;5.18;65.25
72548;BME280;60570;50.848;6.776;2024-01-15T05:08:24;99186.69;;;5.20;64.85
72548;BME280;60570;50.848;6.776;2024-01-15T05:09:24;99191.38;;;5.19;65.22
72548;BME280;60570;50.848;6.776;2024-01-15T05:10:26;99190.25;;;5.20;65.15
72548;BME280;60570;50.848;6.776;2024-01-15T05:11:27;99181.53;;;5.18;65.30
72548;BME280;60570;50.848;6.776;2024-01-15T05:12:30;99182.47;;;5.22;65.30
72548;BME280;60570;50.848;6.776;2024-01-15T05:13:30;99189.91;;;5.22;64.81
72548;BME280;60570;50.848;6.776;2024-01-15T05:14:32;99179.72;;;5.22;65.28
72548;BME280;60570;50.848;6.776;2024-01-15T05:15:34;99188.75;;;5.23;65.25
72548;BME280;60570;50.848;6.776;2024-01-15T05:16:38;99184.88;;;5.24;65.13
72548;BME280;60570;50.848;6.776;2024-01-15T05:17:38;99192.34;;;5.23;65.12
72548;BME280;60570;50.848;6.776;2024-01-15T05:18:39;99183.94;;;5.20;65.40
72548;BME280;60570;50.848;6.776;2024-01-15T05:19:41;99186.81;;;5.23;65.00
72548;BME280;60570;50.848;6.776;2024-01-15T05:20:41;99184.06;;;5.23;65.20
72548;BME280;60570;50.848;6.776;2024-01-15T05:21:43;99186.00;;;5.23;65.24
72548;BME280;60570;50.848;6.776;2024-01-15T05:22:44;99182.13;;;5.24;65.31
72548;BME280;60570;50.848;6.776;2024-01-15T05:23:45;99187.66;;;5.24;65.11
72548;BME280;60570;50.848;6.776;2024-01-15T05:24:46;99187.66;;;5.24;65.09
72548;BME280;60570;50.848;6.776;2024-01-15T05:25:48;99192.47;;;5.27;64.70
72548;BME280;60570;50.848;6.776;2024-01-15T05:26:49;99179.72;;;5.22;65.14
72548;BME280;60570;50.848;6.776;2024-01-15T05:27:52;99188.47;;;5.24;65.01
72548;BME280;60570;50.848;6.776;2024-01-15T05:28:52;99186.00;;;5.23;64.85
72548;BME280;60570;50.848;6.776;2024-01-15T05:29:54;99180.97;;;5.25;65.08